sensor_id;sensor_type;location;lat;lon;timestamp;P1;durP1;ratioP1;P2;durP2;ratioP2
15102;SDS011;7652;53.584;9.998;2022-12-07T00:00:08;9.00;;;6.07;;
15102;SDS011;7652;53.584;9.998;2022-12-07T00:03:12;8.57;;;6.27;;
15102;SDS011;7652;53.584;9.998;2022-12-07T00:06:17;10.77;;;6.67;;
15102;SDS011;7652;53.584;9.998;2022-12-07T00:09:20;7.80;;;5.90;;
15102;SDS011;7652;53.584;9.998;2022-12-07T00:12:24;8.83;;;7.10;;
15102;SDS011;7652;53.584;9.998;2022-12-07T00:15:27;8.47;;;6.13;;
15102;SDS011;7652;53.584;9.998;2022-12-07T00:18:30;8.63;;;6.80;;
15102;SDS011;7652;53.584;9.998;2022-12-07T00:21:35;9.93;;;6.93;;
15102;SDS011;7652;53.584;9.998;2022-12-07T00:24:38;9.17;;;6.77;;
15102;SDS011;7652;53.584;9.998;2022-12-07T00:27:41;8.73;;;6.10;;
15102;SDS011;7652;53.584;9.998;2022-12-07T00:30:44;10.27;;;6.63;;
15102;SDS011;7652;53.584;9.998;2022-12-07T00:33:47;9.10;;;6.70;;
15102;SDS011;7652;53.584;9.998;2022-12-07T00:36:53;9.17;;;6.70;;
15102;SDS011;7652;53.584;9.998;2022-12-07T00:39:56;8.83;;;6.43;;
15102;SDS011;7652;53.584;9.998;2022-12-07T00:42:59;10.57;;;6.67;;
15102;SDS011;7652;53.584;9.998;2022-12-07T00:46:02;12.00;;;6.47;;
15102;SDS011;7652;53.584;9.998;2022-12-07T00:49:05;8.43;;;6.30;;
15102;SDS011;7652;53.584;9.998;2022-12-07T00:52:10;8.57;;;5.80;;
15102;SDS011;7652;53.584;9.998;2022-12-07T00:55:13;7.43;;;5.57;;
15102;SDS011;7652;53.584;9.998;2022-12-07T00:58:16;7.40;;;5.57;;
15102;SDS011;7652;53.584;9.998;2022-12-07T01:01:19;7.67;;;5.80;;
15102;SDS011;7652;53.584;9.998;2022-12-07T01:04:22;8.50;;;5.40;;
15102;SDS011;7652;53.584;9.998;2022-12-07T01:07:26;6.07;;;4.87;;
15102;SDS011;7652;53.584;9.998;2022-12-07T01:10:29;7.17;;;5.47;;
15102;SDS011;7652;53.584;9.998;2022-12-07T01:13:33;6.70;;;5.07;;
15102;SDS011;7652;53.584;9.998;2022-12-07T01:16:38;5.77;;;4.80;;
15102;SDS011;7652;53.584;9.998;2022-12-07T01:19:41;7.60;;;5.40;;
15102;SDS011;7652;53.584;9.998;2022-12-07T01:22:45;9.93;;;5.50;;
15102;SDS011;7652;53.584;9.998;2022-12-07T01:25:53;6.93;;;5.37;;
15102;SDS011;7652;53.584;9.998;2022-12-07T01:28:57;6.93;;;5.13;;
15102;SDS011;7652;53.584;9.998;2022-12-07T01:32:02;8.60;;;4.87;;
15102;SDS011;7652;53.584;9.998;2022-12-07T01:35:05;7.23;;;5.10;;
15102;SDS011;7652;53.584;9.998;2022-12-07T01:38:09;6.93;;;4.60;;
15102;SDS011;7652;53.584;9.998;2022-12-07T01:41:13;6.57;;;4.53;;
15102;SDS011;7652;53.584;9.998;2022-12-07T01:44:18;6.77;;;5.10;;
15102;SDS011;7652;53.584;9.998;2022-12-07T01:47:23;6.63;;;5.00;;
15102;SDS011;7652;53.584;9.998;2022-12-07T01:50:26;5.90;;;5.20;;
15102;SDS011;7652;53.584;9.998;2022-12-07T01:53:34;7.63;;;5.20;;
15102;SDS011;7652;53.584;9.998;2022-12-07T01:56:40;9.63;;;5.93;;
15102;SDS011;7652;53.584;9.998;2022-12-07T01:59:47;8.50;;;5.60;;
15102;SDS011;7652;53.584;9.998;2022-12-07T02:02:53;4.53;;;3.93;;
15102;SDS011;7652;53.584;9.998;2022-12-07T02:06:00;4.73;;;4.23;;
15102;SDS011;7652;53.584;9.998;2022-12-07T02:09:04;5.13;;;4.00;;
15102;SDS011;7652;53.584;9.998;2022-12-07T02:12:08;9.20;;;4.37;;
15102;SDS011;7652;53.584;9.998;2022-12-07T02:15:11;5.80;;;3.73;;
15102;SDS011;7652;53.584;9.998;2022-12-07T02:18:16;8.37;;;4.27;;
15102;SDS011;7652;53.584;9.998;2022-12-07T02:21:27;6.03;;;3.50;;
15102;SDS011;7652;53.584;9.998;2022-12-07T02:24:42;4.53;;;3.47;;
15102;SDS011;7652;53.584;9.998;2022-12-07T02:27:56;4.97;;;3.30;;
15102;SDS011;7652;53.584;9.998;2022-12-07T02:31:10;4.77;;;3.83;;
15102;SDS011;7652;53.584;9.998;2022-12-07T02:34:19;4.90;;;3.23;;
15102;SDS011;7652;53.584;9.998;2022-12-07T02:37:31;6.23;;;2.73;;
15102;SDS011;7652;53.584;9.998;2022-12-07T02:40:40;4.37;;;3.03;;
15102;SDS011;7652;53.584;9.998;2022-12-07T02:43:47;4.27;;;2.50;;
15102;SDS011;7652;53.584;9.998;2022-12-07T02:46:58;3.13;;;2.40;;
15102;SDS011;7652;53.584;9.998;2022-12-07T02:50:04;3.40;;;2.10;;
15102;SDS011;7652;53.584;9.998;2022-12-07T02:56:34;2.60;;;2.07;;
15102;SDS011;7652;53.584;9.998;2022-12-07T02:59:46;3.20;;;2.23;;
15102;SDS011;7652;53.584;9.998;2022-12-07T03:03:03;4.27;;;1.97;;
15102;SDS011;7652;53.584;9.998;2022-12-07T03:06:12;4.63;;;1.93;;
15102;SDS011;7652;53.584;9.998;2022-12-07T03:09:24;4.20;;;1.87;;
15102;SDS011;7652;53.584;9.998;2022-12-07T03:12:35;2.60;;;1.83;;
15102;SDS011;7652;53.584;9.998;2022-12-07T03:15:46;2.20;;;1.97;;
15102;SDS011;7652;53.584;9.998;2022-12-07T03:18:56;3.77;;;1.23;;
15102;SDS011;7652;53.584;9.998;2022-12-07T03:22:04;2.53;;;1.43;;
15102;SDS011;7652;53.584;9.998;2022-12-07T03:25:10;2.00;;;0.97;;
15102;SDS011;7652;53.584;9.998;2022-12-07T03:28:17;2.87;;;1.17;;
15102;SDS011;7652;53.584;9.998;2022-12-07T03:31:25;2.70;;;1.50;;
15102;SDS011;7652;53.584;9.998;2022-12-07T03:34:34;1.80;;;1.03;;
15102;SDS011;7652;53.584;9.998;2022-12-07T03:37:43;1.37;;;0.73;;
15102;SDS011;7652;53.584;9.998;2022-12-07T03:40:50;1.00;;;0.90;;
15102;SDS011;7652;53.584;9.998;2022-12-07T03:44:01;1.67;;;0.87;;
15102;SDS011;7652;53.584;9.998;2022-12-07T03:47:04;0.70;;;0.60;;
15102;SDS011;7652;53.584;9.998;2022-12-07T03:50:18;0.67;;;0.63;;
15102;SDS011;7652;53.584;9.998;2022-12-07T03:53:29;0.90;;;0.67;;
15102;SDS011;7652;53.584;9.998;2022-12-07T03:56:37;1.43;;;0.80;;
15102;SDS011;7652;53.584;9.998;2022-12-07T03:59:42;1.00;;;0.80;;
15102;SDS011;7652;53.584;9.998;2022-12-07T04:02:45;1.53;;;0.90;;
15102;SDS011;7652;53.584;9.998;2022-12-07T04:05:50;2.70;;;0.90;;
15102;SDS011;7652;53.584;9.998;2022-12-07T04:08:53;1.20;;;0.70;;
15102;SDS011;7652;53.584;9.998;2022-12-07T04:11:56;1.20;;;1.10;;
15102;SDS011;7652;53.584;9.998;2022-12-07T04:14:59;1.20;;;0.90;;
15102;SDS011;7652;53.584;9.998;2022-12-07T04:18:02;1.10;;;0.70;;
15102;SDS011;7652;53.584;9.998;2022-12-07T04:21:06;0.80;;;0.80;;
15102;SDS011;7652;53.584;9.998;2022-12-07T04:24:09;1.47;;;0.97;;
15102;SDS011;7652;53.584;9.998;2022-12-07T04:27:14;1.67;;;0.70;;
15102;SDS011;7652;53.584;9.998;2022-12-07T04:30:18;1.03;;;0.80;;
15102;SDS011;7652;53.584;9.998;2022-12-07T04:33:21;0.53;;;0.53;;
15102;SDS011;7652;53.584;9.998;2022-12-07T04:36:26;4.33;;;1.53;;
15102;SDS011;7652;53.584;9.998;2022-12-07T04:39:30;1.00;;;0.90;;
15102;SDS011;7652;53.584;9.998;2022-12-07T04:42:34;1.33;;;1.00;;
15102;SDS011;7652;53.584;9.998;2022-12-07T04:45:37;1.57;;;1.10;;
15102;SDS011;7652;53.584;9.998;2022-12-07T04:48:40;1.63;;;1.10;;
15102;SDS011;7652;53.584;9.998;2022-12-07T04:51:45;0.83;;;0.83;;
15102;SDS011;7652;53.584;9.998;2022-12-07T04:54:48;1.53;;;1.33;;
15102;SDS011;7652;53.584;9.998;2022-12-07T04:57:51;1.10;;;0.90;;
15102;SDS011;7652;53.584;9.998;2022-12-07T05:00:54;1.50;;;1.03;;
15102;SDS011;7652;53.584;9.998;2022-12-07T05:03:57;1.30;;;0.90;;
15102;SDS011;7652;53.584;9.998;2022-12-07T05:07:02;1.20;;;1.10;;
15102;SDS011;7652;53.584;9.998;2022-12-07T05:10:05;1.87;;;1.10;;
15102;SDS011;7652;53.584;9.998;2022-12-07T05:13:09;2.57;;;1.30;;
15102;SDS011;7652;53.584;9.998;2022-12-07T05:16:12;2.10;;;1.47;;
15102;SDS011;7652;53.584;9.998;2022-12-07T05:19:16;2.07;;;1.33;;
15102;SDS011;7652;53.584;9.998;2022-12-07T05:22:21;2.90;;;1.30;;
15102;SDS011;7652;53.584;9.998;2022-12-07T05:25:24;1.70;;;1.07;;
15102;SDS011;7652;53.584;9.998;2022-12-07T05:28:27;1.37;;;0.93;;
15102;SDS011;7652;53.584;9.998;2022-12-07T05:31:31;1.47;;;1.37;;
15102;SDS011;7652;53.584;9.998;2022-12-07T05:34:35;3.50;;;1.60;;
15102;SDS011;7652;53.584;9.998;2022-12-07T05:37:39;2.13;;;1.27;;
15102;SDS011;7652;53.584;9.998;2022-12-07T05:40:43;1.43;;;1.33;;
15102;SDS011;7652;53.584;9.998;2022-12-07T05:43:45;2.03;;;1.30;;
15102;SDS011;7652;53.584;9.998;2022-12-07T05:46:48;3.93;;;1.83;;
15102;SDS011;7652;53.584;9.998;2022-12-07T05:49:51;1.30;;;1.17;;
15102;SDS011;7652;53.584;9.998;2022-12-07T05:52:56;3.90;;;1.57;;
15102;SDS011;7652;53.584;9.998;2022-12-07T05:55:59;1.40;;;1.20;;
15102;SDS011;7652;53.584;9.998;2022-12-07T05:59:02;2.50;;;1.40;;
15102;SDS011;7652;53.584;9.998;2022-12-07T06:02:22;2.33;;;1.43;;
15102;SDS011;7652;53.584;9.998;2022-12-07T06:05:25;1.80;;;1.63;;
15102;SDS011;7652;53.584;9.998;2022-12-07T06:08:29;1.67;;;1.43;;
15102;SDS011;7652;53.584;9.998;2022-12-07T06:11:33;1.77;;;1.43;;
15102;SDS011;7652;53.584;9.998;2022-12-07T06:14:53;1.50;;;1.40;;
15102;SDS011;7652;53.584;9.998;2022-12-07T06:17:56;1.43;;;1.33;;
15102;SDS011;7652;53.584;9.998;2022-12-07T06:20:59;2.23;;;1.37;;
15102;SDS011;7652;53.584;9.998;2022-12-07T06:24:04;2.03;;;1.80;;
15102;SDS011;7652;53.584;9.998;2022-12-07T06:27:07;2.47;;;1.70;;
15102;SDS011;7652;53.584;9.998;2022-12-07T06:30:11;1.20;;;1.10;;
15102;SDS011;7652;53.584;9.998;2022-12-07T06:33:14;3.30;;;1.43;;
15102;SDS011;7652;53.584;9.998;2022-12-07T06:36:17;2.37;;;1.30;;
15102;SDS011;7652;53.584;9.998;2022-12-07T06:39:28;1.93;;;1.47;;
15102;SDS011;7652;53.584;9.998;2022-12-07T06:42:31;2.57;;;1.90;;
15102;SDS011;7652;53.584;9.998;2022-12-07T06:45:34;1.67;;;1.40;;
15102;SDS011;7652;53.584;9.998;2022-12-07T06:48:37;1.80;;;1.50;;
15102;SDS011;7652;53.584;9.998;2022-12-07T06:51:42;1.33;;;1.23;;
15102;SDS011;7652;53.584;9.998;2022-12-07T06:54:46;3.33;;;1.30;;
15102;SDS011;7652;53.584;9.998;2022-12-07T06:57:49;1.33;;;1.13;;
15102;SDS011;7652;53.584;9.998;2022-12-07T07:00:52;1.27;;;1.13;;
15102;SDS011;7652;53.584;9.998;2022-12-07T07:03:55;2.80;;;1.30;;
15102;SDS011;7652;53.584;9.998;2022-12-07T07:06:58;1.50;;;0.97;;
15102;SDS011;7652;53.584;9.998;2022-12-07T07:10:03;1.97;;;1.07;;
15102;SDS011;7652;53.584;9.998;2022-12-07T07:13:07;2.07;;;1.30;;
15102;SDS011;7652;53.584;9.998;2022-12-07T07:16:10;1.20;;;1.00;;
15102;SDS011;7652;53.584;9.998;2022-12-07T07:19:13;0.93;;;0.80;;
15102;SDS011;7652;53.584;9.998;2022-12-07T07:22:16;0.93;;;0.80;;
15102;SDS011;7652;53.584;9.998;2022-12-07T07:25:21;4.67;;;1.13;;
15102;SDS011;7652;53.584;9.998;2022-12-07T07:28:24;0.93;;;0.80;;
15102;SDS011;7652;53.584;9.998;2022-12-07T07:31:27;1.63;;;1.00;;
15102;SDS011;7652;53.584;9.998;2022-12-07T07:34:30;1.47;;;0.93;;
15102;SDS011;7652;53.584;9.998;2022-12-07T07:37:33;2.40;;;1.20;;
15102;SDS011;7652;53.584;9.998;2022-12-07T07:40:38;1.97;;;1.00;;
15102;SDS011;7652;53.584;9.998;2022-12-07T07:43:41;3.80;;;1.17;;
15102;SDS011;7652;53.584;9.998;2022-12-07T07:46:44;2.03;;;1.10;;
15102;SDS011;7652;53.584;9.998;2022-12-07T07:49:47;1.13;;;0.87;;
15102;SDS011;7652;53.584;9.998;2022-12-07T07:52:50;3.50;;;0.97;;
15102;SDS011;7652;53.584;9.998;2022-12-07T07:55:55;3.50;;;0.90;;
15102;SDS011;7652;53.584;9.998;2022-12-07T07:58:58;0.80;;;0.80;;
15102;SDS011;7652;53.584;9.998;2022-12-07T08:02:01;2.10;;;1.03;;
15102;SDS011;7652;53.584;9.998;2022-12-07T08:05:04;0.60;;;0.60;;
15102;SDS011;7652;53.584;9.998;2022-12-07T08:08:08;0.80;;;0.80;;
15102;SDS011;7652;53.584;9.998;2022-12-07T08:11:12;1.37;;;0.80;;
15102;SDS011;7652;53.584;9.998;2022-12-07T08:14:15;1.17;;;0.50;;
15102;SDS011;7652;53.584;9.998;2022-12-07T08:17:18;1.97;;;0.90;;
15102;SDS011;7652;53.584;9.998;2022-12-07T08:20:21;1.90;;;0.67;;
15102;SDS011;7652;53.584;9.998;2022-12-07T08:23:24;4.40;;;1.10;;
15102;SDS011;7652;53.584;9.998;2022-12-07T08:26:40;3.30;;;0.97;;
15102;SDS011;7652;53.584;9.998;2022-12-07T08:29:44;4.83;;;0.87;;
15102;SDS011;7652;53.584;9.998;2022-12-07T08:32:47;1.73;;;0.70;;
15102;SDS011;7652;53.584;9.998;2022-12-07T08:35:51;1.07;;;0.90;;
15102;SDS011;7652;53.584;9.998;2022-12-07T08:38:54;2.03;;;0.90;;
15102;SDS011;7652;53.584;9.998;2022-12-07T08:42:18;2.57;;;0.67;;
15102;SDS011;7652;53.584;9.998;2022-12-07T08:45:23;1.80;;;0.50;;
15102;SDS011;7652;53.584;9.998;2022-12-07T08:48:28;3.27;;;1.03;;
15102;SDS011;7652;53.584;9.998;2022-12-07T08:51:31;2.87;;;0.90;;
15102;SDS011;7652;53.584;9.998;2022-12-07T08:54:34;2.67;;;0.60;;
15102;SDS011;7652;53.584;9.998;2022-12-07T08:57:40;2.17;;;0.90;;
15102;SDS011;7652;53.584;9.998;2022-12-07T09:00:44;2.60;;;0.60;;
15102;SDS011;7652;53.584;9.998;2022-12-07T09:03:47;2.17;;;0.73;;
15102;SDS011;7652;53.584;9.998;2022-12-07T09:06:50;1.47;;;0.73;;
15102;SDS011;7652;53.584;9.998;2022-12-07T09:09:53;0.70;;;0.60;;
15102;SDS011;7652;53.584;9.998;2022-12-07T09:12:58;2.20;;;0.80;;
15102;SDS011;7652;53.584;9.998;2022-12-07T09:16:02;0.83;;;0.70;;
15102;SDS011;7652;53.584;9.998;2022-12-07T09:19:05;0.90;;;0.67;;
15102;SDS011;7652;53.584;9.998;2022-12-07T09:22:08;1.50;;;1.20;;
15102;SDS011;7652;53.584;9.998;2022-12-07T09:25:12;1.83;;;0.73;;
15102;SDS011;7652;53.584;9.998;2022-12-07T09:28:16;3.00;;;1.20;;
15102;SDS011;7652;53.584;9.998;2022-12-07T09:31:19;2.13;;;0.90;;
15102;SDS011;7652;53.584;9.998;2022-12-07T09:34:25;3.93;;;1.13;;
15102;SDS011;7652;53.584;9.998;2022-12-07T09:37:29;2.03;;;1.03;;
15102;SDS011;7652;53.584;9.998;2022-12-07T09:40:33;1.27;;;0.70;;
15102;SDS011;7652;53.584;9.998;2022-12-07T09:43:37;0.93;;;0.70;;
15102;SDS011;7652;53.584;9.998;2022-12-07T09:46:42;2.20;;;0.77;;
15102;SDS011;7652;53.584;9.998;2022-12-07T09:49:47;2.87;;;0.90;;
15102;SDS011;7652;53.584;9.998;2022-12-07T09:52:50;2.13;;;1.00;;
15102;SDS011;7652;53.584;9.998;2022-12-07T09:55:54;1.37;;;0.83;;
15102;SDS011;7652;53.584;9.998;2022-12-07T09:58:59;1.10;;;1.00;;
15102;SDS011;7652;53.584;9.998;2022-12-07T10:02:19;2.03;;;0.83;;
15102;SDS011;7652;53.584;9.998;2022-12-07T10:05:27;3.90;;;1.30;;
15102;SDS011;7652;53.584;9.998;2022-12-07T10:08:32;2.67;;;0.60;;
15102;SDS011;7652;53.584;9.998;2022-12-07T10:11:43;0.70;;;0.57;;
15102;SDS011;7652;53.584;9.998;2022-12-07T10:15:03;3.87;;;1.40;;
15102;SDS011;7652;53.584;9.998;2022-12-07T10:21:38;2.40;;;0.90;;
15102;SDS011;7652;53.584;9.998;2022-12-07T10:24:41;8.77;;;0.80;;
15102;SDS011;7652;53.584;9.998;2022-12-07T10:27:56;1.43;;;0.80;;
15102;SDS011;7652;53.584;9.998;2022-12-07T10:31:02;2.13;;;0.80;;
15102;SDS011;7652;53.584;9.998;2022-12-07T10:34:20;0.47;;;0.47;;
15102;SDS011;7652;53.584;9.998;2022-12-07T10:37:25;3.00;;;0.73;;
15102;SDS011;7652;53.584;9.998;2022-12-07T10:40:30;2.13;;;0.80;;
15102;SDS011;7652;53.584;9.998;2022-12-07T10:43:35;1.57;;;0.70;;
15102;SDS011;7652;53.584;9.998;2022-12-07T10:46:48;1.93;;;0.80;;
15102;SDS011;7652;53.584;9.998;2022-12-07T10:50:14;0.50;;;0.43;;
15102;SDS011;7652;53.584;9.998;2022-12-07T10:56:58;1.47;;;0.50;;
15102;SDS011;7652;53.584;9.998;2022-12-07T11:00:10;3.03;;;0.90;;
15102;SDS011;7652;53.584;9.998;2022-12-07T11:03:38;2.87;;;0.93;;
15102;SDS011;7652;53.584;9.998;2022-12-07T11:06:51;1.70;;;0.77;;
15102;SDS011;7652;53.584;9.998;2022-12-07T11:10:01;1.53;;;0.60;;
15102;SDS011;7652;53.584;9.998;2022-12-07T11:13:23;2.93;;;0.53;;
15102;SDS011;7652;53.584;9.998;2022-12-07T11:16:33;1.90;;;1.00;;
15102;SDS011;7652;53.584;9.998;2022-12-07T11:19:59;4.20;;;1.00;;
15102;SDS011;7652;53.584;9.998;2022-12-07T11:23:12;3.23;;;0.50;;
15102;SDS011;7652;53.584;9.998;2022-12-07T11:26:25;1.60;;;0.60;;
15102;SDS011;7652;53.584;9.998;2022-12-07T11:29:47;2.87;;;1.20;;
15102;SDS011;7652;53.584;9.998;2022-12-07T11:33:07;2.40;;;0.80;;
15102;SDS011;7652;53.584;9.998;2022-12-07T11:36:26;1.57;;;0.50;;
15102;SDS011;7652;53.584;9.998;2022-12-07T11:39:36;1.67;;;0.57;;
15102;SDS011;7652;53.584;9.998;2022-12-07T11:42:45;3.13;;;0.60;;
15102;SDS011;7652;53.584;9.998;2022-12-07T11:45:54;2.20;;;0.60;;
15102;SDS011;7652;53.584;9.998;2022-12-07T11:49:03;5.43;;;1.07;;
15102;SDS011;7652;53.584;9.998;2022-12-07T11:52:18;4.97;;;0.60;;
15102;SDS011;7652;53.584;9.998;2022-12-07T11:55:29;1.83;;;0.80;;
15102;SDS011;7652;53.584;9.998;2022-12-07T11:58:47;1.70;;;0.73;;
15102;SDS011;7652;53.584;9.998;2022-12-07T12:01:55;2.43;;;1.13;;
15102;SDS011;7652;53.584;9.998;2022-12-07T12:05:02;3.17;;;0.73;;
15102;SDS011;7652;53.584;9.998;2022-12-07T12:08:17;2.50;;;0.93;;
15102;SDS011;7652;53.584;9.998;2022-12-07T12:11:56;2.93;;;0.90;;
15102;SDS011;7652;53.584;9.998;2022-12-07T12:15:45;6.33;;;1.00;;
15102;SDS011;7652;53.584;9.998;2022-12-07T12:19:08;2.97;;;0.80;;
15102;SDS011;7652;53.584;9.998;2022-12-07T12:22:26;3.60;;;0.90;;
15102;SDS011;7652;53.584;9.998;2022-12-07T12:25:37;2.33;;;0.60;;
15102;SDS011;7652;53.584;9.998;2022-12-07T12:28:49;3.10;;;0.80;;
15102;SDS011;7652;53.584;9.998;2022-12-07T12:32:06;2.40;;;0.93;;
15102;SDS011;7652;53.584;9.998;2022-12-07T12:35:26;2.23;;;1.00;;
15102;SDS011;7652;53.584;9.998;2022-12-07T12:38:32;4.27;;;1.00;;
15102;SDS011;7652;53.584;9.998;2022-12-07T12:41:53;1.90;;;0.80;;
15102;SDS011;7652;53.584;9.998;2022-12-07T12:45:20;1.10;;;0.50;;
15102;SDS011;7652;53.584;9.998;2022-12-07T12:48:28;2.07;;;0.73;;
15102;SDS011;7652;53.584;9.998;2022-12-07T12:51:35;2.90;;;0.90;;
15102;SDS011;7652;53.584;9.998;2022-12-07T12:54:55;2.77;;;1.17;;
15102;SDS011;7652;53.584;9.998;2022-12-07T13:01:39;3.27;;;0.70;;
15102;SDS011;7652;53.584;9.998;2022-12-07T13:08:00;3.60;;;0.70;;
15102;SDS011;7652;53.584;9.998;2022-12-07T13:11:16;2.27;;;0.70;;
15102;SDS011;7652;53.584;9.998;2022-12-07T13:14:42;4.73;;;0.80;;
15102;SDS011;7652;53.584;9.998;2022-12-07T13:17:57;3.23;;;0.87;;
15102;SDS011;7652;53.584;9.998;2022-12-07T13:24:38;3.50;;;0.73;;
15102;SDS011;7652;53.584;9.998;2022-12-07T13:27:41;9.90;;;0.80;;
15102;SDS011;7652;53.584;9.998;2022-12-07T13:30:53;2.47;;;0.67;;
15102;SDS011;7652;53.584;9.998;2022-12-07T13:37:30;3.57;;;0.77;;
15102;SDS011;7652;53.584;9.998;2022-12-07T13:40:39;2.70;;;0.60;;
15102;SDS011;7652;53.584;9.998;2022-12-07T13:43:43;1.23;;;0.60;;
15102;SDS011;7652;53.584;9.998;2022-12-07T13:46:57;4.03;;;1.00;;
15102;SDS011;7652;53.584;9.998;2022-12-07T13:50:21;0.50;;;0.50;;
15102;SDS011;7652;53.584;9.998;2022-12-07T13:53:26;2.17;;;1.20;;
15102;SDS011;7652;53.584;9.998;2022-12-07T13:56:32;2.13;;;0.60;;
15102;SDS011;7652;53.584;9.998;2022-12-07T13:59:36;1.67;;;0.50;;
15102;SDS011;7652;53.584;9.998;2022-12-07T14:02:53;3.20;;;1.00;;
15102;SDS011;7652;53.584;9.998;2022-12-07T14:06:06;1.53;;;0.60;;
15102;SDS011;7652;53.584;9.998;2022-12-07T14:09:21;2.63;;;0.60;;
15102;SDS011;7652;53.584;9.998;2022-12-07T14:12:26;3.10;;;0.97;;
15102;SDS011;7652;53.584;9.998;2022-12-07T14:15:31;4.03;;;0.80;;
15102;SDS011;7652;53.584;9.998;2022-12-07T14:18:37;3.87;;;0.80;;
15102;SDS011;7652;53.584;9.998;2022-12-07T14:21:41;0.83;;;0.60;;
15102;SDS011;7652;53.584;9.998;2022-12-07T14:24:44;2.17;;;0.80;;
15102;SDS011;7652;53.584;9.998;2022-12-07T14:27:49;2.37;;;0.73;;
15102;SDS011;7652;53.584;9.998;2022-12-07T14:30:54;4.30;;;0.60;;
15102;SDS011;7652;53.584;9.998;2022-12-07T14:33:59;2.70;;;0.73;;
15102;SDS011;7652;53.584;9.998;2022-12-07T14:37:03;2.17;;;0.80;;
15102;SDS011;7652;53.584;9.998;2022-12-07T14:40:12;1.67;;;0.70;;
15102;SDS011;7652;53.584;9.998;2022-12-07T14:43:16;2.37;;;0.60;;
15102;SDS011;7652;53.584;9.998;2022-12-07T14:46:20;3.40;;;0.87;;
15102;SDS011;7652;53.584;9.998;2022-12-07T14:49:24;3.10;;;0.87;;
15102;SDS011;7652;53.584;9.998;2022-12-07T14:52:30;1.47;;;0.60;;
15102;SDS011;7652;53.584;9.998;2022-12-07T14:55:53;2.57;;;0.83;;
15102;SDS011;7652;53.584;9.998;2022-12-07T14:58:56;1.50;;;0.47;;
15102;SDS011;7652;53.584;9.998;2022-12-07T15:01:59;2.00;;;0.60;;
15102;SDS011;7652;53.584;9.998;2022-12-07T15:05:04;1.73;;;0.67;;
15102;SDS011;7652;53.584;9.998;2022-12-07T15:08:16;1.80;;;0.77;;
15102;SDS011;7652;53.584;9.998;2022-12-07T15:11:19;2.73;;;1.03;;
15102;SDS011;7652;53.584;9.998;2022-12-07T15:14:22;1.60;;;0.90;;
15102;SDS011;7652;53.584;9.998;2022-12-07T15:17:25;3.70;;;0.90;;
15102;SDS011;7652;53.584;9.998;2022-12-07T15:20:34;3.50;;;1.67;;
15102;SDS011;7652;53.584;9.998;2022-12-07T15:23:37;3.07;;;1.63;;
15102;SDS011;7652;53.584;9.998;2022-12-07T15:26:40;2.37;;;1.60;;
15102;SDS011;7652;53.584;9.998;2022-12-07T15:29:43;2.57;;;1.10;;
15102;SDS011;7652;53.584;9.998;2022-12-07T15:32:48;1.90;;;1.20;;
15102;SDS011;7652;53.584;9.998;2022-12-07T15:35:53;1.50;;;1.03;;
15102;SDS011;7652;53.584;9.998;2022-12-07T15:38:56;3.17;;;1.50;;
15102;SDS011;7652;53.584;9.998;2022-12-07T15:42:14;2.43;;;1.33;;
15102;SDS011;7652;53.584;9.998;2022-12-07T15:45:17;3.93;;;1.20;;
15102;SDS011;7652;53.584;9.998;2022-12-07T15:48:20;1.67;;;1.07;;
15102;SDS011;7652;53.584;9.998;2022-12-07T15:51:30;2.23;;;0.70;;
15102;SDS011;7652;53.584;9.998;2022-12-07T15:54:33;1.73;;;0.90;;
15102;SDS011;7652;53.584;9.998;2022-12-07T15:57:37;2.73;;;0.73;;
15102;SDS011;7652;53.584;9.998;2022-12-07T16:00:42;1.10;;;0.60;;
15102;SDS011;7652;53.584;9.998;2022-12-07T16:03:45;4.10;;;1.10;;
15102;SDS011;7652;53.584;9.998;2022-12-07T16:06:50;3.50;;;1.17;;
15102;SDS011;7652;53.584;9.998;2022-12-07T16:09:53;4.23;;;1.40;;
15102;SDS011;7652;53.584;9.998;2022-12-07T16:12:56;3.03;;;2.17;;
15102;SDS011;7652;53.584;9.998;2022-12-07T16:16:01;2.37;;;1.97;;
15102;SDS011;7652;53.584;9.998;2022-12-07T16:19:06;2.17;;;1.10;;
15102;SDS011;7652;53.584;9.998;2022-12-07T16:22:11;3.30;;;2.03;;
15102;SDS011;7652;53.584;9.998;2022-12-07T16:25:14;4.70;;;2.87;;
15102;SDS011;7652;53.584;9.998;2022-12-07T16:28:17;3.63;;;1.77;;
15102;SDS011;7652;53.584;9.998;2022-12-07T16:31:21;3.00;;;1.70;;
15102;SDS011;7652;53.584;9.998;2022-12-07T16:34:26;3.90;;;1.63;;
15102;SDS011;7652;53.584;9.998;2022-12-07T16:37:31;3.27;;;1.63;;
15102;SDS011;7652;53.584;9.998;2022-12-07T16:40:34;2.10;;;1.37;;
15102;SDS011;7652;53.584;9.998;2022-12-07T16:43:37;7.23;;;2.13;;
15102;SDS011;7652;53.584;9.998;2022-12-07T16:46:40;3.53;;;2.00;;
15102;SDS011;7652;53.584;9.998;2022-12-07T16:49:43;3.37;;;2.10;;
15102;SDS011;7652;53.584;9.998;2022-12-07T16:52:48;2.50;;;1.80;;
15102;SDS011;7652;53.584;9.998;2022-12-07T16:55:51;3.63;;;1.70;;
15102;SDS011;7652;53.584;9.998;2022-12-07T16:58:54;2.63;;;1.60;;
15102;SDS011;7652;53.584;9.998;2022-12-07T17:01:57;3.00;;;1.53;;
15102;SDS011;7652;53.584;9.998;2022-12-07T17:05:00;3.43;;;1.30;;
15102;SDS011;7652;53.584;9.998;2022-12-07T17:08:05;2.00;;;1.50;;
15102;SDS011;7652;53.584;9.998;2022-12-07T17:11:12;2.57;;;1.87;;
15102;SDS011;7652;53.584;9.998;2022-12-07T17:14:16;3.77;;;1.40;;
15102;SDS011;7652;53.584;9.998;2022-12-07T17:17:36;3.07;;;1.13;;
15102;SDS011;7652;53.584;9.998;2022-12-07T17:20:39;2.17;;;1.37;;
15102;SDS011;7652;53.584;9.998;2022-12-07T17:23:43;3.33;;;1.30;;
15102;SDS011;7652;53.584;9.998;2022-12-07T17:26:46;2.50;;;1.13;;
15102;SDS011;7652;53.584;9.998;2022-12-07T17:29:51;1.33;;;1.20;;
15102;SDS011;7652;53.584;9.998;2022-12-07T17:32:54;1.60;;;1.20;;
15102;SDS011;7652;53.584;9.998;2022-12-07T17:35:57;3.40;;;1.40;;
15102;SDS011;7652;53.584;9.998;2022-12-07T17:39:05;1.60;;;1.30;;
15102;SDS011;7652;53.584;9.998;2022-12-07T17:42:10;5.07;;;1.23;;
15102;SDS011;7652;53.584;9.998;2022-12-07T17:45:30;2.50;;;1.33;;
15102;SDS011;7652;53.584;9.998;2022-12-07T17:48:34;3.03;;;1.50;;
15102;SDS011;7652;53.584;9.998;2022-12-07T17:51:37;1.77;;;1.30;;
15102;SDS011;7652;53.584;9.998;2022-12-07T17:55:00;1.67;;;1.10;;
15102;SDS011;7652;53.584;9.998;2022-12-07T17:58:03;2.43;;;1.60;;
15102;SDS011;7652;53.584;9.998;2022-12-07T18:01:07;3.57;;;1.37;;
15102;SDS011;7652;53.584;9.998;2022-12-07T18:04:11;1.87;;;1.30;;
15102;SDS011;7652;53.584;9.998;2022-12-07T18:07:15;2.90;;;1.47;;
15102;SDS011;7652;53.584;9.998;2022-12-07T18:10:19;5.07;;;1.40;;
15102;SDS011;7652;53.584;9.998;2022-12-07T18:13:22;2.40;;;1.20;;
15102;SDS011;7652;53.584;9.998;2022-12-07T18:16:37;1.83;;;1.07;;
15102;SDS011;7652;53.584;9.998;2022-12-07T18:19:41;4.33;;;1.50;;
15102;SDS011;7652;53.584;9.998;2022-12-07T18:22:44;1.80;;;1.30;;
15102;SDS011;7652;53.584;9.998;2022-12-07T18:25:48;2.23;;;1.57;;
15102;SDS011;7652;53.584;9.998;2022-12-07T18:28:52;2.50;;;1.73;;
15102;SDS011;7652;53.584;9.998;2022-12-07T18:31:55;6.50;;;2.30;;
15102;SDS011;7652;53.584;9.998;2022-12-07T18:34:59;6.53;;;3.17;;
15102;SDS011;7652;53.584;9.998;2022-12-07T18:38:02;5.47;;;3.53;;
15102;SDS011;7652;53.584;9.998;2022-12-07T18:41:07;4.33;;;2.13;;
15102;SDS011;7652;53.584;9.998;2022-12-07T18:44:11;4.07;;;2.17;;
15102;SDS011;7652;53.584;9.998;2022-12-07T18:47:14;5.67;;;2.37;;
15102;SDS011;7652;53.584;9.998;2022-12-07T18:50:18;2.10;;;1.80;;
15102;SDS011;7652;53.584;9.998;2022-12-07T18:53:21;4.30;;;2.00;;
15102;SDS011;7652;53.584;9.998;2022-12-07T18:56:25;4.80;;;2.07;;
15102;SDS011;7652;53.584;9.998;2022-12-07T18:59:28;3.10;;;1.67;;
15102;SDS011;7652;53.584;9.998;2022-12-07T19:02:50;3.23;;;2.23;;
15102;SDS011;7652;53.584;9.998;2022-12-07T19:05:53;5.37;;;1.83;;
15102;SDS011;7652;53.584;9.998;2022-12-07T19:08:58;3.50;;;1.83;;
15102;SDS011;7652;53.584;9.998;2022-12-07T19:12:02;4.13;;;2.47;;
15102;SDS011;7652;53.584;9.998;2022-12-07T19:15:06;7.27;;;2.77;;
15102;SDS011;7652;53.584;9.998;2022-12-07T19:18:10;4.37;;;3.03;;
15102;SDS011;7652;53.584;9.998;2022-12-07T19:21:13;2.60;;;2.40;;
15102;SDS011;7652;53.584;9.998;2022-12-07T19:24:16;6.03;;;2.97;;